Time;durP1;ratioP1;P1;durP2;ratioP2;P2;SDS_P1;SDS_P2;PMS_P1;PMS_P2;Temp;Humidity;BMP_temperature;BMP_pressure;BME280_temperature;BME280_humidity;BME280_pressure;Samples;Min_cycle;Max_cycle;Signal;HPM_P1;HPM_P2
2022/06/25 00:01:28;;;;;;;0.00;0.00;;;14.40;63.50;;;;;;5046190;28;19999;-75
2022/06/25 00:03:54;;;;;;;0.00;0.00;;;14.40;63.50;;;;;;5046061;28;20432;-77
2022/06/25 00:06:21;;;;;;;0.00;0.00;;;14.40;63.50;;;;;;5029416;28;20067;-76
2022/06/25 00:08:48;;;;;;;0.00;0.00;;;14.30;63.60;;;;;;5029454;28;20037;-76
2022/06/25 00:14:07;;;;;;;0.00;0.00;;;14.20;63.70;;;;;;5047692;28;20066;-76
2022/06/25 00:16:34;;;;;;;0.00;0.00;;;14.10;63.70;;;;;;5047327;28;20075;-75
2022/06/25 00:19:00;;;;;;;0.00;0.00;;;14.10;63.80;;;;;;5046226;28;20029;-75
2022/06/25 00:21:25;;;;;;;0.00;0.00;;;14.10;63.70;;;;;;5046054;28;20440;-76
2022/06/25 00:23:51;;;;;;;0.00;0.00;;;14.00;63.70;;;;;;5046004;28;20122;-76
2022/06/25 00:26:17;;;;;;;0.00;0.00;;;14.00;63.70;;;;;;5046213;28;20399;-77
2022/06/25 00:28:43;;;;;;;0.00;0.00;;;14.00;63.70;;;;;;5046044;28;20127;-77
2022/06/25 00:31:08;;;;;;;0.00;0.00;;;14.00;63.70;;;;;;5029556;28;20483;-76
2022/06/25 00:33:34;;;;;;;0.00;0.00;;;14.00;63.70;;;;;;5029184;28;20052;-77
2022/06/25 00:36:00;;;;;;;0.00;0.00;;;13.90;63.60;;;;;;5046003;28;20077;-75
2022/06/25 00:38:25;;;;;;;0.00;0.00;;;13.90;63.60;;;;;;5029632;28;20025;-77
2022/06/25 00:40:51;;;;;;;0.00;0.00;;;13.90;63.70;;;;;;5048505;28;20057;-76
2022/06/25 00:43:17;;;;;;;0.00;0.00;;;13.90;63.70;;;;;;5051145;28;20601;-76
2022/06/25 00:45:44;;;;;;;0.00;0.00;;;13.80;63.70;;;;;;5033443;28;20432;-76
2022/06/25 00:48:09;;;;;;;0.00;0.00;;;13.80;63.70;;;;;;5033205;28;20029;-76
2022/06/25 00:50:35;;;;;;;0.00;0.00;;;13.70;63.70;;;;;;5049722;28;20064;-75
2022/06/25 00:53:07;;;;;;;0.00;0.00;;;13.70;63.70;;;;;;5050867;28;20037;-77
2022/06/25 00:55:38;;;;;;;0.00;0.00;;;13.70;63.70;;;;;;5049594;28;20025;-78
2022/06/25 00:58:09;;;;;;;0.00;0.00;;;13.60;63.70;;;;;;5050931;28;20031;-75
2022/06/25 01:00:36;;;;;;;0.00;0.00;;;13.60;63.70;;;;;;5050970;28;20017;-76
2022/06/25 01:03:02;;;;;;;0.00;0.00;;;13.50;63.70;;;;;;5033214;28;20387;-76
2022/06/25 01:05:27;;;;;;;0.00;0.00;;;13.40;63.70;;;;;;5032722;28;20299;-76
2022/06/25 01:07:53;;;;;;;0.00;0.00;;;13.40;63.80;;;;;;5032919;28;20041;-74
2022/06/25 01:10:19;;;;;;;0.00;0.00;;;13.40;63.80;;;;;;5032774;28;20029;-77
2022/06/25 01:12:45;;;;;;;0.00;0.00;;;13.30;63.70;;;;;;5050681;28;20040;-76
2022/06/25 01:15:18;;;;;;;0.00;0.00;;;13.30;63.80;;;;;;5017603;28;20072;-76
2022/06/25 01:17:51;;;;;;;0.00;0.00;;;13.20;63.80;;;;;;5049693;28;20514;-76
2022/06/25 01:20:19;;;;;;;0.00;0.00;;;13.10;63.80;;;;;;5050752;28;20021;-77
2022/06/25 01:22:45;;;;;;;0.00;0.00;;;13.10;63.90;;;;;;5050473;28;20048;-76
2022/06/25 01:25:12;;;;;;;0.00;0.00;;;13.00;63.90;;;;;;5032557;28;20374;-77
2022/06/25 01:27:38;;;;;;;0.00;0.00;;;13.00;64.00;;;;;;5048996;28;20044;-76
2022/06/25 01:30:05;;;;;;;;;;;12.90;63.90;;;;;;5016586;28;20088;-75
2022/06/25 01:32:31;;;;;;;0.00;0.00;;;12.90;63.90;;;;;;5032483;28;19928;-78
2022/06/25 01:34:56;;;;;;;0.00;0.00;;;12.90;64.00;;;;;;5032222;28;20053;-77
2022/06/25 01:37:22;;;;;;;0.00;0.00;;;12.90;64.00;;;;;;5015967;28;20128;-77
2022/06/25 01:39:55;;;;;;;0.00;0.00;;;12.90;64.00;;;;;;5050268;28;20063;-76
2022/06/25 01:45:11;;;;;;;0.00;0.00;;;12.80;63.90;;;;;;5050161;28;20434;-78
2022/06/25 01:47:37;;;;;;;0.00;0.00;;;12.90;64.00;;;;;;5048690;28;20505;-76
2022/06/25 01:50:04;;;;;;;0.00;0.00;;;12.80;63.90;;;;;;5032020;28;20056;-77
2022/06/25 01:52:30;;;;;;;0.00;0.00;;;12.80;64.00;;;;;;5030985;28;20022;-75
2022/06/25 01:54:56;;;;;;;0.00;0.00;;;12.80;64.00;;;;;;5048578;28;20037;-76
2022/06/25 01:57:21;;;;;;;0.00;0.00;;;12.80;64.00;;;;;;5032077;28;20112;-76
2022/06/25 01:59:48;;;;;;;0.00;0.00;;;12.80;64.00;;;;;;5048562;28;20467;-76
2022/06/25 02:02:14;;;;;;;0.00;0.00;;;12.80;64.10;;;;;;5048626;28;20383;-76
2022/06/25 02:04:40;;;;;;;0.00;0.00;;;12.80;64.00;;;;;;5031509;28;20291;-77
2022/06/25 02:07:05;;;;;;;0.00;0.00;;;12.80;64.00;;;;;;5031698;28;20479;-76
2022/06/25 02:09:31;;;;;;;0.00;0.00;;;12.80;64.00;;;;;;5031535;28;20028;-76
2022/06/25 02:11:57;;;;;;;0.00;0.00;;;12.80;64.10;;;;;;5049607;28;20056;-77
2022/06/25 02:14:23;;;;;;;0.00;0.00;;;12.80;64.10;;;;;;5031811;28;20329;-78
2022/06/25 02:16:49;;;;;;;;;;;12.80;64.10;;;;;;5032026;28;20056;-75
2022/06/25 02:19:14;;;;;;;0.00;0.00;;;12.80;64.00;;;;;;5049418;28;19909;-75
2022/06/25 02:21:40;;;;;;;0.00;0.00;;;12.90;64.00;;;;;;5048067;28;20091;-78
2022/06/25 02:24:06;;;;;;;0.00;0.00;;;12.90;64.00;;;;;;5031633;28;20095;-77
2022/06/25 02:26:32;;;;;;;0.00;0.00;;;12.90;63.90;;;;;;5049185;28;20037;-78
2022/06/25 02:28:57;;;;;;;0.00;0.00;;;12.90;63.90;;;;;;5031422;28;20037;-77
2022/06/25 02:31:23;;;;;;;0.00;0.00;;;12.80;63.90;;;;;;5031450;28;20029;-77
2022/06/25 02:33:49;;;;;;;0.00;0.00;;;12.80;64.00;;;;;;5031042;28;20098;-76
2022/06/25 02:36:14;;;;;;;0.00;0.00;;;12.80;64.00;;;;;;5031297;28;20463;-77
2022/06/25 02:38:40;;;;;;;0.00;0.00;;;12.80;64.10;;;;;;5047810;28;20039;-76
2022/06/25 02:41:06;;;;;;;0.00;0.00;;;12.70;64.00;;;;;;5047799;28;20029;-76
2022/06/25 02:43:32;;;;;;;0.00;0.00;;;12.70;64.00;;;;;;5015501;28;20037;-78
2022/06/25 02:45:57;;;;;;;0.00;0.00;;;12.70;64.00;;;;;;5032481;28;20037;-80
2022/06/25 02:48:23;;;;;;;0.00;0.00;;;12.70;64.00;;;;;;5031038;28;20029;-76
2022/06/25 02:50:49;;;;;;;0.00;0.00;;;12.60;64.00;;;;;;5047636;28;20044;-77
2022/06/25 02:53:14;;;;;;;0.00;0.00;;;12.60;64.10;;;;;;5047536;28;20029;-79
2022/06/25 03:01:08;;;;;;;0.00;0.00;;;12.60;64.00;;;;;;5048682;28;20051;-76
2022/06/25 03:03:34;;;;;;;0.00;0.00;;;12.60;64.00;;;;;;5014180;28;20029;-76
2022/06/25 03:06:00;;;;;;;0.00;0.00;;;12.50;64.00;;;;;;5030777;28;20395;-77
2022/06/25 03:08:25;;;;;;;0.00;0.00;;;12.50;64.00;;;;;;5048525;28;20025;-75
2022/06/25 03:10:51;;;;;;;0.00;0.00;;;12.50;64.10;;;;;;5047306;28;20220;-77
2022/06/25 03:13:17;;;;;;;0.00;0.00;;;12.50;64.10;;;;;;5048449;28;20493;-76
2022/06/25 03:15:42;;;;;;;0.00;0.00;;;12.60;64.20;;;;;;5046983;28;20033;-76
2022/06/25 03:18:08;;;;;;;0.00;0.00;;;12.60;64.10;;;;;;5014000;28;20438;-75
2022/06/25 03:20:34;;;;;;;0.00;0.00;;;12.70;64.10;;;;;;5047144;28;20061;-77
2022/06/25 03:23:00;;;;;;;0.00;0.00;;;12.70;64.10;;;;;;5047109;28;20029;-76
2022/06/25 03:25:26;;;;;;;0.00;0.00;;;12.70;64.10;;;;;;5048160;28;20044;-77
2022/06/25 03:27:51;;;;;;;0.00;0.00;;;12.70;64.10;;;;;;5046883;28;20059;-77
2022/06/25 03:30:17;;;;;;;0.00;0.00;;;12.70;64.10;;;;;;5048146;28;20086;-76
2022/06/25 03:32:43;;;;;;;0.00;0.00;;;12.70;64.10;;;;;;5046536;28;20131;-75
2022/06/25 03:35:09;;;;;;;0.00;0.00;;;12.80;64.10;;;;;;5048037;28;20044;-78
2022/06/25 03:37:34;;;;;;;0.00;0.00;;;12.80;64.10;;;;;;5046629;28;20102;-77
2022/06/25 03:40:00;;;;;;;0.00;0.00;;;12.80;64.00;;;;;;5013743;28;20386;-76
2022/06/25 03:42:26;;;;;;;0.00;0.00;;;12.80;64.00;;;;;;5046652;28;20071;-77
2022/06/25 03:44:51;;;;;;;0.00;0.00;;;12.80;64.00;;;;;;5046316;28;20025;-77
2022/06/25 03:47:17;;;;;;;0.00;0.00;;;12.80;64.00;;;;;;5046497;28;20033;-75
2022/06/25 03:49:43;;;;;;;0.00;0.00;;;12.80;64.10;;;;;;5046431;28;20036;-78
2022/06/25 03:52:09;;;;;;;0.00;0.00;;;12.80;64.10;;;;;;5030053;28;20127;-79
2022/06/25 03:54:35;;;;;;;0.00;0.00;;;12.70;64.10;;;;;;5046588;28;20347;-77
2022/06/25 03:57:02;;;;;;;0.00;0.00;;;12.70;64.10;;;;;;5046413;28;20351;-77
2022/06/25 03:59:28;;;;;;;0.00;0.00;;;12.70;64.20;;;;;;5046255;28;20082;-76
2022/06/25 04:01:54;;;;;;;0.00;0.00;;;12.70;64.10;;;;;;5046404;28;20032;-78
2022/06/25 04:04:20;;;;;;;0.00;0.00;;;12.70;64.20;;;;;;5046400;28;20467;-76
2022/06/25 04:06:46;;;;;;;0.70;0.10;;;12.70;64.20;;;;;;5046270;28;20054;-77
2022/06/25 04:09:12;;;;;;;0.00;0.00;;;12.70;64.20;;;;;;5029846;28;20136;-77
2022/06/25 04:11:38;;;;;;;0.38;0.13;;;12.60;64.20;;;;;;5029816;28;20044;-77
2022/06/25 04:14:04;;;;;;;0.00;0.00;;;12.60;64.20;;;;;;5048166;28;20017;-77
2022/06/25 04:16:29;;;;;;;0.00;0.00;;;12.60;64.30;;;;;;5033934;28;20029;-76
2022/06/25 04:18:56;;;;;;;0.00;0.00;;;12.60;64.30;;;;;;5033964;28;20033;-76
2022/06/25 04:21:22;;;;;;;0.00;0.00;;;12.60;64.30;;;;;;5051721;28;20094;-77
2022/06/25 04:23:47;;;;;;;0.00;0.00;;;12.60;64.30;;;;;;5050439;28;20025;-77
2022/06/25 04:26:13;;;;;;;0.00;0.00;;;12.60;64.20;;;;;;5033582;28;20483;-76
2022/06/25 04:31:24;;;;;;;0.00;0.00;;;12.70;64.30;;;;;;5050749;28;20036;-75
2022/06/25 04:33:49;;;;;;;0.00;0.00;;;12.70;64.20;;;;;;5050103;28;20049;-77
2022/06/25 04:36:15;;;;;;;0.00;0.00;;;12.70;64.30;;;;;;5033378;28;20098;-77
2022/06/25 04:38:41;;;;;;;0.00;0.00;;;12.70;64.30;;;;;;5051328;28;20039;-76
2022/06/25 04:41:06;;;;;;;0.00;0.00;;;12.70;64.30;;;;;;5049927;28;20037;-75
2022/06/25 04:43:32;;;;;;;0.00;0.00;;;12.70;64.30;;;;;;5049891;28;20033;-79
2022/06/25 04:45:58;;;;;;;0.00;0.00;;;12.70;64.30;;;;;;5033036;28;20048;-78
2022/06/25 04:48:23;;;;;;;0.00;0.00;;;12.70;64.30;;;;;;5033266;28;20043;-76
2022/06/25 04:50:49;;;;;;;0.00;0.00;;;12.80;64.30;;;;;;5016804;28;20109;-79
2022/06/25 04:53:16;;;;;;;0.00;0.00;;;12.70;64.20;;;;;;5049532;28;20503;-78
2022/06/25 04:55:42;;;;;;;0.00;0.00;;;12.80;64.40;;;;;;5033036;28;20060;-77
2022/06/25 04:58:08;;;;;;;0.00;0.00;;;12.90;64.40;;;;;;5049674;28;20032;-78
2022/06/25 05:00:34;;;;;;;0.00;0.00;;;13.00;64.20;;;;;;5050601;28;20029;-79
2022/06/25 05:03:00;;;;;;;0.00;0.00;;;13.10;64.20;;;;;;5049371;28;20028;-77
2022/06/25 05:05:26;;;;;;;0.00;0.00;;;13.10;64.10;;;;;;5050586;28;20029;-76
2022/06/25 05:07:52;;;;;;;0.00;0.00;;;13.10;64.10;;;;;;5016492;28;20066;-77
2022/06/25 05:10:17;;;;;;;0.00;0.00;;;13.10;64.10;;;;;;5032785;28;20124;-76
2022/06/25 05:15:27;;;;;;;0.00;0.00;;;13.10;64.30;;;;;;5050881;28;20097;-74
2022/06/25 05:17:53;;;;;;;0.00;0.00;;;13.10;64.30;;;;;;5032870;28;20037;-75
2022/06/25 05:20:18;;;;;;;0.00;0.00;;;13.00;64.30;;;;;;5016139;28;20046;-77
2022/06/25 05:22:44;;;;;;;0.00;0.00;;;13.00;64.20;;;;;;5049238;28;20032;-74
2022/06/25 05:25:10;;;;;;;0.00;0.00;;;13.00;64.20;;;;;;5048984;28;20040;-76
2022/06/25 05:27:36;;;;;;;0.00;0.00;;;13.00;64.30;;;;;;5049179;28;20029;-75
2022/06/25 05:30:02;;;;;;;;;;;12.90;64.30;;;;;;5016530;28;20029;-76
2022/06/25 05:32:28;;;;;;;0.00;0.00;;;12.90;64.40;;;;;;5032589;28;19916;-76
2022/06/25 05:34:55;;;;;;;0.00;0.00;;;13.00;64.40;;;;;;5031968;28;20059;-79
2022/06/25 05:37:21;;;;;;;0.00;0.00;;;13.00;64.40;;;;;;5032581;28;20036;-73
2022/06/25 05:39:47;;;;;;;0.00;0.00;;;13.00;64.40;;;;;;5048678;28;20025;-76
2022/06/25 05:42:12;;;;;;;0.00;0.00;;;13.10;64.40;;;;;;5032946;28;20033;-75
2022/06/25 05:44:38;;;;;;;0.00;0.00;;;13.10;64.30;;;;;;5050866;28;20057;-76
2022/06/25 05:47:04;;;;;;;0.00;0.00;;;13.10;64.40;;;;;;5015624;28;20044;-76
2022/06/25 05:49:30;;;;;;;0.00;0.00;;;13.10;64.40;;;;;;5032296;28;20031;-76
2022/06/25 05:51:56;;;;;;;0.00;0.00;;;13.30;64.50;;;;;;5049968;28;20030;-74
2022/06/25 05:54:22;;;;;;;0.00;0.00;;;13.40;64.40;;;;;;5032332;28;20063;-77
2022/06/25 05:56:47;;;;;;;0.00;0.00;;;13.70;64.30;;;;;;5032396;28;20498;-78
2022/06/25 05:59:13;;;;;;;0.00;0.00;;;13.90;64.10;;;;;;5032328;28;20078;-78
2022/06/25 06:01:39;;;;;;;0.00;0.00;;;14.00;64.10;;;;;;5048752;28;20036;-73
2022/06/25 06:04:05;;;;;;;0.00;0.00;;;14.10;63.90;;;;;;5049607;28;20129;-74
2022/06/25 06:06:31;;;;;;;0.00;0.00;;;14.30;63.80;;;;;;5031730;28;20033;-76
2022/06/25 06:08:56;;;;;;;;;;;14.30;63.60;;;;;;5032254;28;20033;-77
2022/06/25 06:11:22;;;;;;;0.00;0.00;;;14.30;63.70;;;;;;5049566;28;19928;-76
2022/06/25 06:13:48;;;;;;;0.00;0.00;;;14.30;63.60;;;;;;5031561;28;20494;-74
2022/06/25 06:16:13;;;;;;;0.00;0.00;;;14.20;63.50;;;;;;5031401;28;20061;-74
2022/06/25 06:18:39;;;;;;;0.00;0.00;;;14.10;63.60;;;;;;5048136;28;20032;-76
2022/06/25 06:21:05;;;;;;;0.00;0.00;;;14.10;63.90;;;;;;5048046;28;20045;-75
2022/06/25 06:23:31;;;;;;;0.00;0.00;;;14.20;64.00;;;;;;5014970;28;20033;-76
2022/06/25 06:25:56;;;;;;;0.00;0.00;;;14.50;63.90;;;;;;5047706;28;20040;-77
2022/06/25 06:28:22;;;;;;;0.00;0.00;;;14.80;63.40;;;;;;5031194;28;20090;-75
2022/06/25 06:30:48;;;;;;;0.00;0.00;;;15.10;63.50;;;;;;5047745;28;20025;-75
2022/06/25 06:33:13;;;;;;;0.00;0.00;;;15.50;63.00;;;;;;5030996;28;20054;-78
2022/06/25 06:35:39;;;;;;;0.00;0.00;;;15.80;62.60;;;;;;5047653;28;20090;-79
2022/06/25 06:38:05;;;;;;;0.00;0.00;;;16.00;62.30;;;;;;5046894;28;20514;-77
2022/06/25 06:40:31;;;;;;;0.00;0.00;;;16.10;62.10;;;;;;5031375;28;20099;-76
2022/06/25 06:42:57;;;;;;;0.00;0.00;;;16.10;62.10;;;;;;5048957;28;20550;-76
2022/06/25 06:45:23;;;;;;;0.00;0.00;;;16.10;62.20;;;;;;5030691;28;20036;-76
2022/06/25 06:47:48;;;;;;;0.13;0.10;;;16.40;62.30;;;;;;5048918;28;20097;-78
2022/06/25 06:50:14;;;;;;;0.00;0.00;;;16.80;62.30;;;;;;5030767;28;20471;-75
2022/06/25 06:52:40;;;;;;;0.00;0.00;;;17.60;62.00;;;;;;5047525;28;20025;-76
2022/06/25 06:55:06;;;;;;;0.00;0.00;;;18.10;61.20;;;;;;5047163;28;20033;-77
2022/06/25 06:57:33;;;;;;;0.00;0.00;;;18.00;60.70;;;;;;5047291;28;20391;-75
2022/06/25 06:59:58;;;;;;;0.00;0.00;;;17.70;60.90;;;;;;5030437;28;20037;-76
2022/06/25 07:02:25;;;;;;;0.00;0.00;;;17.60;61.60;;;;;;5013762;28;20036;-78
2022/06/25 07:04:52;;;;;;;0.00;0.00;;;18.10;62.10;;;;;;5046517;28;20391;-78
2022/06/25 07:07:18;;;;;;;0.00;0.00;;;19.20;61.60;;;;;;5030666;28;20021;-78
2022/06/25 07:09:44;;;;;;;0.00;0.00;;;20.50;60.90;;;;;;5030374;28;20368;-77
2022/06/25 07:12:10;;;;;;;0.00;0.00;;;21.50;60.00;;;;;;5046675;28;20033;-77
2022/06/25 07:14:36;;;;;;;0.00;0.00;;;22.30;59.50;;;;;;5046720;28;20029;-78
2022/06/25 07:17:01;;;;;;;;;;;22.90;59.10;;;;;;5030646;28;20055;-78
2022/06/25 07:19:27;;;;;;;0.00;0.00;;;23.00;58.60;;;;;;5046986;28;19932;-78
2022/06/25 07:21:54;;;;;;;;;;;23.00;59.30;;;;;;5014431;28;20043;-77
2022/06/25 07:24:21;;;;;;;0.00;0.00;;;23.20;59.30;;;;;;5048514;28;19905;-76
2022/06/25 07:26:47;;;;;;;0.00;0.00;;;23.40;59.10;;;;;;5047082;28;20114;-79
2022/06/25 07:29:13;;;;;;;0.00;0.00;;;23.60;59.90;;;;;;5048029;28;20046;-79
2022/06/25 07:31:38;;;;;;;;;;;24.30;59.60;;;;;;5030765;28;20040;-77
2022/06/25 07:34:04;;;;;;;0.00;0.00;;;24.90;59.40;;;;;;5047851;28;19927;-77
2022/06/25 07:36:30;;;;;;;;;;;24.60;58.20;;;;;;5047175;28;20035;-76
2022/06/25 07:38:55;;;;;;;0.00;0.00;;;23.50;58.30;;;;;;5046869;28;19912;-79
2022/06/25 07:41:21;;;;;;;0.00;0.00;;;22.30;59.60;;;;;;5047580;28;20030;-78
2022/06/25 07:43:47;;;;;;;0.00;0.00;;;21.10;60.30;;;;;;5045765;28;20364;-76
2022/06/25 07:46:13;;;;;;;0.00;0.00;;;20.10;61.30;;;;;;5046309;28;20053;-78
2022/06/25 07:48:39;;;;;;;0.00;0.00;;;19.40;62.00;;;;;;5046219;28;20044;-76
2022/06/25 07:53:49;;;;;;;0.00;0.00;;;18.40;63.00;;;;;;5047693;28;20184;-76
2022/06/25 07:56:15;;;;;;;0.00;0.00;;;18.10;63.40;;;;;;5029569;28;20427;-80
2022/06/25 07:58:40;;;;;;;0.00;0.00;;;18.00;63.50;;;;;;5029874;28;20127;-78
2022/06/25 08:01:06;;;;;;;0.00;0.00;;;18.10;63.40;;;;;;5046676;28;20078;-76
2022/06/25 08:03:32;;;;;;;0.00;0.00;;;18.00;63.10;;;;;;5046538;28;20442;-76
2022/06/25 08:05:58;;;;;;;0.00;0.00;;;17.80;63.00;;;;;;5047433;28;20408;-74
2022/06/25 08:08:25;;;;;;;0.00;0.00;;;17.70;63.30;;;;;;5045437;28;20064;-74
2022/06/25 08:10:51;;;;;;;0.00;0.00;;;17.80;63.10;;;;;;5047205;28;20036;-78
2022/06/25 08:13:17;;;;;;;0.00;0.00;;;17.80;63.10;;;;;;5045886;28;20021;-76
2022/06/25 08:15:43;;;;;;;;;;;17.70;63.20;;;;;;5047765;28;20043;-78
2022/06/25 08:18:09;;;;;;;0.00;0.00;;;17.80;63.40;;;;;;5029361;28;20299;-77
2022/06/25 08:20:34;;;;;;;;;;;18.60;64.20;;;;;;5029971;28;20029;-79
2022/06/25 08:23:00;;;;;;;0.00;0.00;;;19.70;63.80;;;;;;5045467;28;19912;-76
2022/06/25 08:25:26;;;;;;;0.00;0.00;;;20.60;62.90;;;;;;5028905;28;20040;-79
2022/06/25 08:27:53;;;;;;;0.00;0.00;;;21.10;62.00;;;;;;5046820;28;20091;-76
2022/06/25 08:30:24;;;;;;;0.00;0.00;;;20.90;61.40;;;;;;5045897;28;20037;-77
2022/06/25 08:32:50;;;;;;;0.00;0.00;;;20.60;61.70;;;;;;5045645;28;20021;-75
2022/06/25 08:35:16;;;;;;;0.00;0.00;;;20.40;62.30;;;;;;5046736;28;20083;-76
2022/06/25 08:37:47;;;;;;;0.00;0.00;;;20.40;62.40;;;;;;5028817;28;20036;-76
2022/06/25 08:40:14;;;;;;;0.00;0.00;;;20.40;62.50;;;;;;5045065;28;20074;-75
2022/06/25 08:42:40;;;;;;;0.00;0.00;;;20.30;62.20;;;;;;5029371;28;20111;-77
2022/06/25 08:45:06;;;;;;;0.00;0.00;;;20.20;62.40;;;;;;5047625;28;20057;-75
2022/06/25 08:47:32;;;;;;;0.00;0.00;;;20.00;62.30;;;;;;5046554;28;20193;-77
2022/06/25 08:50:03;;;;;;;0.00;0.00;;;19.70;62.30;;;;;;5045371;28;20021;-74
2022/06/25 08:52:30;;;;;;;0.00;0.00;;;19.20;62.30;;;;;;5046931;28;20060;-77
2022/06/25 08:54:57;;;;;;;0.00;0.00;;;18.60;62.50;;;;;;5046852;28;20025;-76
2022/06/25 08:57:23;;;;;;;0.00;0.00;;;18.20;63.10;;;;;;5030309;28;20104;-76
2022/06/25 08:59:49;;;;;;;0.00;0.00;;;17.90;63.50;;;;;;5030664;28;20112;-77
2022/06/25 09:02:14;;;;;;;;;;;17.70;63.60;;;;;;5050276;28;20037;-79
2022/06/25 09:04:40;;;;;;;0.00;0.00;;;17.50;63.70;;;;;;5051020;28;19951;-79
2022/06/25 09:07:15;;;;;;;0.00;0.00;;;17.40;64.10;;;;;;5032906;28;20026;-81
2022/06/25 09:09:45;;;;;;;0.00;0.00;;;17.40;64.00;;;;;;5051203;28;20034;-78
2022/06/25 09:12:15;;;;;;;0.00;0.00;;;17.60;64.20;;;;;;5050728;28;20071;-78
2022/06/25 09:14:40;;;;;;;0.00;0.00;;;17.80;64.00;;;;;;5051468;28;20017;-79
2022/06/25 09:17:10;;;;;;;0.00;0.00;;;18.00;63.80;;;;;;5050312;28;20025;-79
2022/06/25 09:19:50;;;;;;;0.00;0.00;;;18.00;63.60;;;;;;5050923;28;20037;-78
2022/06/25 09:22:19;;;;;;;0.00;0.00;;;18.00;63.70;;;;;;5050457;28;20041;-78
2022/06/25 09:24:59;;;;;;;0.00;0.00;;;18.00;63.60;;;;;;5051773;28;20503;-78
2022/06/25 09:27:40;;;;;;;0.00;0.00;;;18.10;63.70;;;;;;5051581;28;20525;-79
2022/06/25 09:30:13;;;;;;;0.00;0.00;;;18.30;63.80;;;;;;5051628;28;20099;-78
2022/06/25 09:32:55;;;;;;;0.00;0.00;;;18.60;63.70;;;;;;5050026;28;20024;-79
2022/06/25 09:35:42;;;;;;;0.00;0.00;;;18.80;63.80;;;;;;5049527;28;20037;-79
2022/06/25 09:38:16;;;;;;;0.00;0.00;;;19.00;63.90;;;;;;5046610;28;20483;-78
2022/06/25 09:40:56;;;;;;;0.00;0.00;;;19.40;63.80;;;;;;5050345;28;20059;-79
2022/06/25 09:43:24;;;;;;;0.00;0.00;;;19.90;63.80;;;;;;5045776;28;20061;-78
2022/06/25 09:45:53;;;;;;;0.00;0.00;;;20.60;64.00;;;;;;5049273;28;20040;-76
2022/06/25 09:48:24;;;;;;;0.00;0.00;;;21.20;63.20;;;;;;5047765;28;20039;-78
2022/06/25 09:51:11;;;;;;;0.00;0.00;;;21.40;63.20;;;;;;5050056;28;20033;-77
2022/06/25 09:53:50;;;;;;;0.00;0.00;;;22.10;63.90;;;;;;5080931;28;20029;-76
2022/06/25 09:56:23;;;;;;;0.00;0.00;;;23.20;64.20;;;;;;5050316;28;20394;-78
2022/06/25 09:58:49;;;;;;;0.00;0.00;;;24.10;64.00;;;;;;5032129;28;20074;-77
2022/06/25 10:01:20;;;;;;;0.00;0.00;;;24.90;63.60;;;;;;5048767;28;20053;-73
2022/06/25 10:03:47;;;;;;;0.00;0.00;;;25.80;63.70;;;;;;5049232;28;20059;-72
2022/06/25 10:06:18;;;;;;;0.00;0.00;;;26.50;62.90;;;;;;5049125;28;20036;-77
2022/06/25 10:08:51;;;;;;;0.00;0.00;;;26.30;62.80;;;;;;5048884;28;20116;-78
2022/06/25 10:11:34;;;;;;;0.00;0.00;;;26.40;63.30;;;;;;5050968;28;20071;-74
2022/06/25 10:14:00;;;;;;;0.00;0.00;;;26.60;63.70;;;;;;5049561;28;20100;-78
2022/06/25 10:16:28;;;;;;;0.00;0.00;;;27.30;64.00;;;;;;5051166;28;20033;-77
2022/06/25 10:18:55;;;;;;;0.00;0.00;;;27.20;62.80;;;;;;5032134;28;20450;-76
2022/06/25 10:21:23;;;;;;;0.00;0.00;;;26.30;62.40;;;;;;5048204;28;20375;-76
2022/06/25 10:23:52;;;;;;;0.00;0.00;;;26.40;64.10;;;;;;5050289;28;20121;-79
2022/06/25 10:26:19;;;;;;;0.00;0.00;;;26.90;63.90;;;;;;5046088;28;20080;-79
2022/06/25 10:28:46;;;;;;;0.00;0.00;;;26.50;62.80;;;;;;5048081;28;20309;-77
2022/06/25 10:31:17;;;;;;;0.00;0.00;;;26.10;63.70;;;;;;5049584;28;20021;-76
2022/06/25 10:33:58;;;;;;;0.00;0.00;;;25.80;63.80;;;;;;5049272;28;20103;-77
2022/06/25 10:36:51;;;;;;;0.00;0.00;;;25.80;64.50;;;;;;5048002;28;20481;-77
2022/06/25 10:39:22;;;;;;;0.00;0.00;;;26.10;64.60;;;;;;5047948;28;20422;-78
2022/06/25 10:45:27;;;;;;;0.00;0.00;;;26.70;64.90;;;;;;5023275;28;20091;-76
2022/06/25 10:47:57;;;;;;;0.00;0.00;;;27.10;64.50;;;;;;5048840;28;20079;-79
2022/06/25 10:50:22;;;;;;;0.00;0.00;;;27.00;63.30;;;;;;5046800;28;20483;-76
2022/06/25 10:53:05;;;;;;;0.00;0.00;;;26.90;64.10;;;;;;5048050;28;20028;-78
2022/06/25 10:55:47;;;;;;;0.00;0.00;;;27.20;63.90;;;;;;5047995;28;20085;-79
2022/06/25 10:58:23;;;;;;;0.00;0.00;;;27.50;64.20;;;;;;5048785;28;20024;-78
2022/06/25 11:00:58;;;;;;;0.00;0.00;;;27.30;63.90;;;;;;5048674;28;20078;-79
2022/06/25 11:03:44;;;;;;;0.00;0.00;;;26.70;63.10;;;;;;5031870;28;20438;-76
2022/06/25 11:06:20;;;;;;;0.00;0.00;;;26.90;64.40;;;;;;5046118;28;20129;-76
2022/06/25 11:08:47;;;;;;;0.00;0.00;;;27.50;64.50;;;;;;5048073;28;20505;-76
2022/06/25 11:11:21;;;;;;;0.00;0.00;;;27.40;63.20;;;;;;5046645;28;20026;-77
2022/06/25 11:13:47;;;;;;;0.00;0.00;;;27.30;63.80;;;;;;5047349;28;20029;-77
2022/06/25 11:16:14;;;;;;;0.00;0.00;;;27.30;64.00;;;;;;5046893;28;20045;-77
2022/06/25 11:18:50;;;;;;;0.00;0.00;;;27.10;64.20;;;;;;5048527;28;20040;-78
2022/06/25 11:21:29;;;;;;;0.00;0.00;;;27.20;65.20;;;;;;5046564;28;20490;-78
2022/06/25 11:24:22;;;;;;;0.00;0.00;;;27.00;64.00;;;;;;5046852;28;20123;-76
2022/06/25 11:29:40;;;;;;;0.00;0.00;;;27.60;64.80;;;;;;5048720;28;20036;-77
2022/06/25 11:32:07;;;;;;;0.00;0.00;;;28.00;64.50;;;;;;5048210;28;20092;-77
2022/06/25 11:34:33;;;;;;;0.10;0.10;;;27.90;63.80;;;;;;5048155;28;20056;-77
2022/06/25 11:37:11;;;;;;;0.00;0.00;;;27.60;63.70;;;;;;5046973;28;20079;-78
2022/06/25 11:39:40;;;;;;;0.00;0.00;;;27.70;63.80;;;;;;5046862;28;20052;-75
2022/06/25 11:42:10;;;;;;;0.00;0.00;;;27.70;63.90;;;;;;5046469;28;20114;-73
2022/06/25 11:44:45;;;;;;;0.00;0.00;;;27.20;63.70;;;;;;5046876;28;20098;-76
2022/06/25 11:47:25;;;;;;;0.00;0.00;;;26.60;63.70;;;;;;5047706;28;20048;-75
2022/06/25 11:49:52;;;;;;;0.00;0.00;;;26.40;64.40;;;;;;5046089;28;20548;-76
2022/06/25 11:52:21;;;;;;;0.00;0.00;;;26.10;63.60;;;;;;5047528;28;20476;-76
2022/06/25 11:54:48;;;;;;;0.00;0.00;;;25.50;63.60;;;;;;5049205;28;20021;-77
2022/06/25 11:57:23;;;;;;;0.00;0.00;;;25.20;63.60;;;;;;5028894;28;20617;-77
2022/06/25 11:59:50;;;;;;;0.00;0.00;;;25.20;64.50;;;;;;5046052;28;20475;-78
2022/06/25 12:02:16;;;;;;;0.00;0.00;;;25.70;64.70;;;;;;5047638;28;20100;-78
2022/06/25 12:04:55;;;;;;;0.00;0.00;;;26.20;64.50;;;;;;5046087;28;20032;-76
2022/06/25 12:07:31;;;;;;;0.00;0.00;;;26.50;64.00;;;;;;5046430;28;20069;-77
2022/06/25 12:10:00;;;;;;;0.00;0.00;;;26.60;63.70;;;;;;5046853;28;20021;-76
2022/06/25 12:12:27;;;;;;;0.00;0.00;;;26.80;64.10;;;;;;5047702;28;20029;-77
2022/06/25 12:14:54;;;;;;;0.00;0.00;;;27.00;64.00;;;;;;5046477;28;20025;-77
2022/06/25 12:17:20;;;;;;;0.00;0.00;;;27.30;64.20;;;;;;5047885;28;20025;-74
2022/06/25 12:19:53;;;;;;;0.00;0.00;;;27.60;64.00;;;;;;5047858;28;20025;-74
2022/06/25 12:22:20;;;;;;;0.00;0.00;;;27.70;63.80;;;;;;5037753;28;20057;-75
2022/06/25 12:24:46;;;;;;;0.25;0.15;;;28.00;64.10;;;;;;5045144;28;20459;-75
2022/06/25 12:27:12;;;;;;;0.00;0.00;;;27.90;64.30;;;;;;5044910;28;20033;-76
2022/06/25 12:29:38;;;;;;;0.00;0.00;;;27.60;63.70;;;;;;5047228;28;20035;-78
2022/06/25 12:32:04;;;;;;;0.00;0.00;;;27.20;63.70;;;;;;5047266;28;20104;-77
2022/06/25 12:34:30;;;;;;;0.00;0.00;;;26.80;63.20;;;;;;5045833;28;20420;-80
2022/06/25 12:36:56;;;;;;;0.00;0.00;;;26.50;63.20;;;;;;5032361;28;20029;-76
2022/06/25 12:39:44;;;;;;;0.00;0.00;;;26.10;63.10;;;;;;5050942;28;20471;-77
2022/06/25 12:42:13;;;;;;;0.00;0.00;;;25.60;63.00;;;;;;5049608;28;20040;-75
2022/06/25 12:44:41;;;;;;;0.00;0.00;;;25.30;63.40;;;;;;5050768;28;20043;-76
2022/06/25 12:47:12;;;;;;;0.00;0.00;;;25.10;63.30;;;;;;5052084;28;20430;-78
2022/06/25 12:49:41;;;;;;;0.00;0.00;;;24.70;63.40;;;;;;5049667;28;20036;-78
2022/06/25 12:52:07;;;;;;;0.00;0.00;;;25.00;64.50;;;;;;5049305;28;20661;-75
2022/06/25 12:55:03;;;;;;;0.00;0.00;;;25.30;64.10;;;;;;5049009;28;20040;-75
2022/06/25 12:57:30;;;;;;;0.00;0.00;;;25.50;64.50;;;;;;5032510;28;20079;-72
2022/06/25 12:59:58;;;;;;;0.00;0.00;;;25.90;64.10;;;;;;5048970;28;20025;-76
2022/06/25 13:02:24;;;;;;;0.00;0.00;;;25.70;63.90;;;;;;5050895;28;20025;-77
2022/06/25 13:04:50;;;;;;;0.00;0.00;;;25.40;63.40;;;;;;5051294;28;20363;-74
2022/06/25 13:07:17;;;;;;;0.00;0.00;;;25.10;63.50;;;;;;5034541;28;20047;-77
2022/06/25 13:09:44;;;;;;;0.00;0.00;;;25.10;63.60;;;;;;5049449;28;20059;-77
2022/06/25 13:12:11;;;;;;;0.00;0.00;;;25.20;63.80;;;;;;5050490;28;20086;-76
2022/06/25 13:14:37;;;;;;;0.00;0.00;;;25.10;63.60;;;;;;5050274;28;20028;-76
2022/06/25 13:17:04;;;;;;;0.00;0.00;;;25.20;63.40;;;;;;5048917;28;20032;-76
2022/06/25 13:19:31;;;;;;;0.10;0.00;;;25.20;63.30;;;;;;5050036;28;20348;-78